createdAt,value
2023-05-10T00:00:31.673Z,0
2023-05-10T00:01:31.665Z,0
2023-05-10T00:02:31.852Z,0
2023-05-10T00:03:31.728Z,0
2023-05-10T00:04:31.720Z,0
2023-05-10T00:05:31.650Z,0
2023-05-10T00:06:31.719Z,0
2023-05-10T00:07:31.652Z,0
2023-05-10T00:08:31.642Z,0
2023-05-10T00:09:31.708Z,0
2023-05-10T00:10:31.683Z,0
2023-05-10T00:11:31.664Z,0
2023-05-10T00:12:31.671Z,0
2023-05-10T00:13:31.724Z,0
2023-05-10T00:14:31.674Z,0
2023-05-10T00:15:31.656Z,0
2023-05-10T00:16:31.795Z,0
2023-05-10T00:17:31.715Z,0
2023-05-10T00:18:31.659Z,0
2023-05-10T00:19:31.623Z,0
2023-05-10T00:20:31.669Z,0
2023-05-10T00:21:31.713Z,0
2023-05-10T00:22:31.725Z,0
2023-05-10T00:23:31.735Z,0
2023-05-10T00:24:31.656Z,0
2023-05-10T00:25:31.653Z,0
2023-05-10T00:26:31.684Z,0
2023-05-10T00:27:31.639Z,0
2023-05-10T00:28:31.645Z,0
2023-05-10T00:29:31.652Z,0
2023-05-10T00:30:31.589Z,0
2023-05-10T00:31:31.745Z,0
2023-05-10T00:32:31.753Z,0
2023-05-10T00:33:31.688Z,0
2023-05-10T00:34:31.744Z,0
2023-05-10T00:35:31.906Z,0
2023-05-10T00:36:31.669Z,0
2023-05-10T00:37:31.672Z,0
2023-05-10T00:38:31.656Z,0
2023-05-10T00:39:31.663Z,0
2023-05-10T00:40:31.664Z,0
2023-05-10T00:41:31.681Z,0
2023-05-10T00:42:31.658Z,0
2023-05-10T00:43:31.669Z,0
2023-05-10T00:44:31.667Z,0
2023-05-10T00:45:31.766Z,0
2023-05-10T00:46:31.711Z,0
2023-05-10T00:47:31.679Z,0
2023-05-10T00:48:31.672Z,0
2023-05-10T00:49:31.682Z,0
2023-05-10T00:50:31.650Z,0
2023-05-10T00:51:31.663Z,0
2023-05-10T00:52:31.638Z,0
2023-05-10T00:53:31.682Z,0
2023-05-10T00:54:31.889Z,0
2023-05-10T00:55:31.758Z,0
2023-05-10T00:56:31.688Z,0
2023-05-10T00:57:31.675Z,0
2023-05-10T00:58:31.629Z,0
2023-05-10T00:59:31.719Z,0
2023-05-10T01:00:31.678Z,0
2023-05-10T01:01:31.743Z,0
2023-05-10T01:02:31.719Z,0
2023-05-10T01:03:31.725Z,0
2023-05-10T01:04:31.832Z,0
2023-05-10T01:05:31.749Z,0
2023-05-10T01:06:31.637Z,0
2023-05-10T01:07:31.679Z,0
2023-05-10T01:08:31.770Z,0
2023-05-10T01:09:31.681Z,0
2023-05-10T01:10:31.668Z,0
2023-05-10T01:11:31.657Z,0
2023-05-10T01:12:31.760Z,0
2023-05-10T01:13:31.731Z,0
2023-05-10T01:14:31.685Z,0
2023-05-10T01:15:31.661Z,0
2023-05-10T01:16:31.774Z,0
2023-05-10T01:17:31.729Z,0
2023-05-10T01:18:31.679Z,0
2023-05-10T01:19:31.718Z,0
2023-05-10T01:20:31.684Z,0
2023-05-10T01:21:31.673Z,0
2023-05-10T01:22:31.715Z,0
2023-05-10T01:23:31.709Z,0
2023-05-10T01:24:31.808Z,0
2023-05-10T01:25:31.744Z,0
2023-05-10T01:26:31.698Z,0
2023-05-10T01:27:31.694Z,0
2023-05-10T01:28:31.683Z,0
2023-05-10T01:29:31.661Z,0
2023-05-10T01:30:31.670Z,0
2023-05-10T01:31:31.735Z,0
2023-05-10T01:32:31.710Z,0
2023-05-10T01:33:31.740Z,0
2023-05-10T01:34:31.659Z,0
2023-05-10T01:35:31.802Z,0
2023-05-10T01:36:31.620Z,0
2023-05-10T01:37:31.700Z,0
2023-05-10T01:38:31.691Z,0
2023-05-10T01:39:31.686Z,0
2023-05-10T01:40:31.784Z,0
2023-05-10T01:41:31.764Z,0
2023-05-10T01:42:31.746Z,0
2023-05-10T01:43:31.867Z,0
2023-05-10T01:44:31.750Z,0
2023-05-10T01:45:31.810Z,0
2023-05-10T01:46:31.923Z,0
2023-05-10T01:47:31.844Z,0
2023-05-10T01:48:31.805Z,0
2023-05-10T01:49:31.816Z,0
2023-05-10T01:50:31.804Z,0
2023-05-10T01:51:31.754Z,0
2023-05-10T01:52:31.820Z,0
2023-05-10T01:53:31.747Z,0
2023-05-10T01:54:31.803Z,0
2023-05-10T01:55:31.850Z,0
2023-05-10T01:56:31.841Z,0
2023-05-10T01:57:31.776Z,0
2023-05-10T01:58:31.827Z,0
2023-05-10T01:59:31.642Z,0
2023-05-10T02:00:31.631Z,0
2023-05-10T02:01:31.633Z,0
2023-05-10T02:02:31.724Z,0
2023-05-10T02:03:31.682Z,0
2023-05-10T02:04:31.656Z,0
2023-05-10T02:05:31.644Z,0
2023-05-10T02:06:31.645Z,0
2023-05-10T02:07:31.666Z,0
2023-05-10T02:08:31.641Z,0
2023-05-10T02:09:31.707Z,0
2023-05-10T02:10:31.675Z,0
2023-05-10T02:11:31.646Z,0
2023-05-10T02:12:31.632Z,0
2023-05-10T02:13:31.708Z,0
2023-05-10T02:14:31.676Z,0
2023-05-10T02:15:31.649Z,0
2023-05-10T02:16:31.649Z,0
2023-05-10T02:17:31.688Z,0
2023-05-10T02:18:31.695Z,0
2023-05-10T02:19:31.655Z,0
2023-05-10T02:20:31.630Z,0
2023-05-10T02:21:31.629Z,0
2023-05-10T02:22:31.664Z,0
2023-05-10T02:23:31.659Z,0
2023-05-10T02:24:31.728Z,0
2023-05-10T02:25:31.626Z,0
2023-05-10T02:26:31.635Z,0
2023-05-10T02:27:31.679Z,0
2023-05-10T02:28:31.679Z,0
2023-05-10T02:29:31.688Z,0
2023-05-10T02:30:31.619Z,0
2023-05-10T02:31:31.657Z,0
2023-05-10T02:32:31.671Z,0
2023-05-10T02:33:31.716Z,0
2023-05-10T02:34:31.747Z,0.36
2023-05-10T02:35:31.726Z,0
2023-05-10T02:36:31.635Z,0.36
2023-05-10T02:37:31.657Z,0.85
2023-05-10T02:38:31.633Z,0.36
2023-05-10T02:39:31.785Z,1.22
2023-05-10T02:40:31.662Z,0.85
2023-05-10T02:41:31.719Z,1.22
2023-05-10T02:42:31.627Z,0.85
2023-05-10T02:43:31.644Z,1.71
2023-05-10T02:44:31.640Z,1.22
2023-05-10T02:45:31.692Z,1.71
2023-05-10T02:46:31.823Z,1.22
2023-05-10T02:47:31.689Z,2.08
2023-05-10T02:48:31.634Z,2.08
2023-05-10T02:49:31.697Z,2.57
2023-05-10T02:50:31.640Z,2.57
2023-05-10T02:51:31.694Z,1.71
2023-05-10T02:52:31.652Z,2.57
2023-05-10T02:53:31.689Z,3.43
2023-05-10T02:54:31.679Z,2.94
2023-05-10T02:55:31.644Z,3.79
2023-05-10T02:56:31.614Z,3.43
2023-05-10T02:57:31.665Z,3.43
2023-05-10T02:58:31.643Z,3.79
2023-05-10T02:59:31.700Z,3.79
2023-05-10T03:00:31.618Z,4.28
2023-05-10T03:01:31.775Z,4.77
2023-05-10T03:02:31.684Z,4.28
2023-05-10T03:03:31.674Z,5.14
2023-05-10T03:04:31.771Z,5.63
2023-05-10T03:05:31.678Z,5.14
2023-05-10T03:06:31.614Z,5.63
2023-05-10T03:07:31.708Z,5.63
2023-05-10T03:08:31.647Z,6.48
2023-05-10T03:09:31.698Z,5.63
2023-05-10T03:10:31.838Z,6.48
2023-05-10T03:11:31.735Z,6.48
2023-05-10T03:12:31.672Z,6.48
2023-05-10T03:13:31.775Z,6.85
2023-05-10T03:14:31.678Z,6.48
2023-05-10T03:15:31.701Z,6.48
2023-05-10T03:16:31.672Z,6.85
2023-05-10T03:17:31.904Z,7.34
2023-05-10T03:18:31.804Z,7.7
2023-05-10T03:19:31.764Z,7.7
2023-05-10T03:20:31.765Z,8.56
2023-05-10T03:21:31.763Z,9.05
2023-05-10T03:22:31.753Z,8.56
2023-05-10T03:23:31.748Z,9.05
2023-05-10T03:24:31.796Z,9.91
2023-05-10T03:25:31.675Z,9.05
2023-05-10T03:26:31.671Z,9.54
2023-05-10T03:27:31.730Z,10.39
2023-05-10T03:28:31.695Z,9.91
2023-05-10T03:29:31.658Z,10.77
2023-05-10T03:30:31.708Z,10.77
2023-05-10T03:31:31.833Z,10.77
2023-05-10T03:32:31.787Z,11.62
2023-05-10T03:33:31.755Z,11.25
2023-05-10T03:34:31.924Z,11.25
2023-05-10T03:35:31.709Z,12.11
2023-05-10T03:36:31.678Z,11.62
2023-05-10T03:37:31.658Z,11.62
2023-05-10T03:38:31.792Z,12.11
2023-05-10T03:39:31.640Z,13.82
2023-05-10T03:40:31.657Z,12.97
2023-05-10T03:41:31.707Z,13.33
2023-05-10T03:42:31.709Z,12.97
2023-05-10T03:43:31.856Z,13.82
2023-05-10T03:44:31.783Z,13.82
2023-05-10T03:45:31.681Z,13.82
2023-05-10T03:46:31.838Z,13.82
2023-05-10T03:47:31.673Z,15.17
2023-05-10T03:48:31.638Z,15.53
2023-05-10T03:49:31.659Z,15.17
2023-05-10T03:50:31.742Z,15.53
2023-05-10T03:51:31.706Z,16.02
2023-05-10T03:52:31.638Z,15.53
2023-05-10T03:53:31.705Z,16.88
2023-05-10T03:54:31.715Z,16.88
2023-05-10T03:55:31.756Z,16.39
2023-05-10T03:56:31.608Z,17.25
2023-05-10T03:57:31.629Z,17.73
2023-05-10T03:58:31.655Z,17.73
2023-05-10T03:59:31.640Z,18.6
2023-05-10T04:00:31.656Z,18.6
2023-05-10T04:01:31.706Z,19.08
2023-05-10T04:02:31.768Z,18.11
2023-05-10T04:03:31.805Z,18.6
2023-05-10T04:04:31.702Z,19.94
2023-05-10T04:05:31.625Z,18.6
2023-05-10T04:06:31.714Z,19.94
2023-05-10T04:07:31.629Z,20.31
2023-05-10T04:08:31.700Z,20.31
2023-05-10T04:09:31.651Z,21.16
2023-05-10T04:10:31.679Z,20.8
2023-05-10T04:11:31.650Z,21.16
2023-05-10T04:12:31.597Z,21.65
2023-05-10T04:13:31.639Z,21.16
2023-05-10T04:14:31.664Z,21.65
2023-05-10T04:15:31.648Z,21.65
2023-05-10T04:16:31.679Z,22.87
2023-05-10T04:17:31.694Z,22.02
2023-05-10T04:18:31.668Z,22.02
2023-05-10T04:19:31.873Z,22.51
2023-05-10T04:20:31.665Z,22.02
2023-05-10T04:21:31.665Z,22.51
2023-05-10T04:22:31.729Z,23.36
2023-05-10T04:23:31.659Z,23.85
2023-05-10T04:24:31.656Z,23.36
2023-05-10T04:25:31.711Z,23.36
2023-05-10T04:26:31.647Z,24.22
2023-05-10T04:27:31.685Z,24.71
2023-05-10T04:28:31.672Z,24.71
2023-05-10T04:29:31.621Z,24.22
2023-05-10T04:30:31.642Z,25.07
2023-05-10T04:31:31.665Z,24.71
2023-05-10T04:32:31.660Z,25.56
2023-05-10T04:33:31.649Z,25.94
2023-05-10T04:34:31.632Z,25.56
2023-05-10T04:35:31.663Z,25.94
2023-05-10T04:36:31.642Z,26.42
2023-05-10T04:37:31.658Z,26.42
2023-05-10T04:38:31.686Z,26.42
2023-05-10T04:39:31.735Z,26.79
2023-05-10T04:40:31.673Z,27.65
2023-05-10T04:41:31.728Z,26.79
2023-05-10T04:42:31.619Z,28.63
2023-05-10T04:43:31.651Z,28.14
2023-05-10T04:44:31.611Z,28.99
2023-05-10T04:45:31.626Z,28.99
2023-05-10T04:46:31.626Z,28.99
2023-05-10T04:47:31.688Z,28.63
2023-05-10T04:48:31.663Z,29.48
2023-05-10T04:49:31.724Z,30.34
2023-05-10T04:50:31.649Z,29.85
2023-05-10T04:51:31.655Z,30.34
2023-05-10T04:52:31.744Z,31.19
2023-05-10T04:53:31.632Z,31.19
2023-05-10T04:54:31.643Z,30.7
2023-05-10T04:55:31.736Z,31.56
2023-05-10T04:56:31.626Z,32.05
2023-05-10T04:57:31.606Z,32.42
2023-05-10T04:58:31.636Z,32.42
2023-05-10T04:59:31.685Z,32.42
2023-05-10T05:00:31.700Z,32.9
2023-05-10T05:01:31.718Z,33.39
2023-05-10T05:02:31.702Z,34.25
2023-05-10T05:03:31.733Z,34.62
2023-05-10T05:04:31.621Z,34.62
2023-05-10T05:05:31.641Z,35.97
2023-05-10T05:06:31.790Z,35.11
2023-05-10T05:07:31.691Z,42.94
2023-05-10T05:08:31.625Z,62.39
2023-05-10T05:09:31.629Z,105.33
2023-05-10T05:10:31.650Z,147.41
2023-05-10T05:11:31.660Z,140.93
2023-05-10T05:12:31.661Z,133.59
2023-05-10T05:13:31.718Z,133.95
2023-05-10T05:14:31.657Z,84.53
2023-05-10T05:15:31.695Z,40.73
2023-05-10T05:16:31.785Z,87.59
2023-05-10T05:17:31.656Z,139.58
2023-05-10T05:18:31.615Z,165.64
2023-05-10T05:19:31.661Z,166.13
2023-05-10T05:20:31.629Z,166.13
2023-05-10T05:21:31.662Z,167.36
2023-05-10T05:22:31.626Z,171.27
2023-05-10T05:23:31.749Z,174.81
2023-05-10T05:24:31.766Z,177.75
2023-05-10T05:25:31.711Z,180.44
2023-05-10T05:26:31.629Z,185.22
2023-05-10T05:27:31.625Z,189.13
2023-05-10T05:28:31.651Z,192.56
2023-05-10T05:29:31.656Z,195.61
2023-05-10T05:30:31.633Z,197.81
2023-05-10T05:31:31.715Z,200.75
2023-05-10T05:32:31.667Z,205.52
2023-05-10T05:33:31.630Z,209.07
2023-05-10T05:34:31.622Z,215.56
2023-05-10T05:35:31.651Z,217.27
2023-05-10T05:36:31.658Z,209.44
2023-05-10T05:37:31.623Z,202.1
2023-05-10T05:38:31.612Z,200.39
2023-05-10T05:39:31.671Z,188.27
2023-05-10T05:40:31.647Z,190.36
2023-05-10T05:41:31.769Z,195.61
2023-05-10T05:42:31.596Z,206.87
2023-05-10T05:43:31.647Z,216.9
2023-05-10T05:44:31.640Z,225.1
2023-05-10T05:45:31.696Z,229.01
2023-05-10T05:46:31.621Z,234.15
2023-05-10T05:47:31.688Z,239.41
2023-05-10T05:48:31.616Z,241.61
2023-05-10T05:49:31.619Z,243.69
2023-05-10T05:50:31.600Z,249.44
2023-05-10T05:51:31.639Z,251.15
2023-05-10T05:52:31.656Z,252.01
2023-05-10T05:53:31.596Z,254.21
2023-05-10T05:54:31.652Z,257.15
2023-05-10T05:55:31.657Z,261.07
2023-05-10T05:56:31.648Z,264.12
2023-05-10T05:57:31.625Z,265.83
2023-05-10T05:58:31.670Z,269.38
2023-05-10T05:59:31.636Z,270.61
2023-05-10T06:00:31.721Z,272.32
2023-05-10T06:01:31.646Z,273.66
2023-05-10T06:02:31.721Z,272.81
2023-05-10T06:03:31.765Z,271.46
2023-05-10T06:04:31.681Z,274.15
2023-05-10T06:05:31.631Z,276.72
2023-05-10T06:06:31.672Z,279.78
2023-05-10T06:07:31.652Z,281
2023-05-10T06:08:31.710Z,285.78
2023-05-10T06:09:31.639Z,274.15
2023-05-10T06:10:32.588Z,225.1
2023-05-10T06:11:41.274Z,190.36
2023-05-10T06:12:45.279Z,192.07
2023-05-10T06:13:49.225Z,167.85
2023-05-10T06:14:53.211Z,162.58
2023-05-10T06:15:57.243Z,194.76
2023-05-10T06:17:01.403Z,195.61
2023-05-10T06:18:05.239Z,180.44
2023-05-10T06:19:09.228Z,205.15
2023-05-10T06:20:13.269Z,105.33
2023-05-10T06:21:17.281Z,101.41
2023-05-10T06:22:21.201Z,117.07
2023-05-10T06:23:25.203Z,150.47
2023-05-10T06:24:29.262Z,149.98
2023-05-10T06:25:31.631Z,159.53
2023-05-10T06:26:31.664Z,155.24
2023-05-10T06:27:31.670Z,105.33
2023-05-10T06:28:31.634Z,107.53
2023-05-10T06:29:31.657Z,131.88
2023-05-10T06:30:31.732Z,82.82
2023-05-10T06:31:31.699Z,85.02
2023-05-10T06:32:31.700Z,78.41
2023-05-10T06:33:31.635Z,105.33
2023-05-10T06:34:31.750Z,76.7
2023-05-10T06:35:31.644Z,74.14
2023-05-10T06:36:31.660Z,75.48
2023-05-10T06:37:31.630Z,102.76
2023-05-10T06:38:31.609Z,103.61
2023-05-10T06:39:31.632Z,91.02
2023-05-10T06:40:31.620Z,80.25
2023-05-10T06:41:31.607Z,99.34
2023-05-10T06:42:31.589Z,93.58
2023-05-10T06:43:31.667Z,138.73
2023-05-10T06:44:31.636Z,146.56
2023-05-10T06:45:31.814Z,123.19
2023-05-10T06:46:31.679Z,75.48
2023-05-10T06:47:31.676Z,85.88
2023-05-10T06:48:31.636Z,81.48
2023-05-10T06:49:31.628Z,74.5
2023-05-10T06:50:31.619Z,81.97
2023-05-10T06:51:31.630Z,84.04
2023-05-10T06:52:31.633Z,107.9
2023-05-10T06:53:31.626Z,111.82
2023-05-10T06:54:31.619Z,121.85
2023-05-10T06:55:31.628Z,110.96
2023-05-10T06:56:31.642Z,143.13
2023-05-10T06:57:32.344Z,134.81
2023-05-10T06:58:31.619Z,158.3
2023-05-10T06:59:31.813Z,211.15
2023-05-10T07:00:31.804Z,172.98
2023-05-10T07:01:31.672Z,169.56
2023-05-10T07:02:31.650Z,169.56
2023-05-10T07:03:31.645Z,189.98
2023-05-10T07:04:31.902Z,203.81
2023-05-10T07:05:31.653Z,230.73
2023-05-10T07:06:33.960Z,264.12
2023-05-10T07:07:31.799Z,236.35
2023-05-10T07:08:31.612Z,297.52
2023-05-10T07:09:31.736Z,272.81
2023-05-10T07:10:31.635Z,294.95
2023-05-10T07:11:31.624Z,304
2023-05-10T07:12:31.659Z,375.57
2023-05-10T07:13:31.657Z,370.43
2023-05-10T07:14:31.618Z,434.17
2023-05-10T07:15:31.644Z,433.8
2023-05-10T07:16:31.651Z,465
2023-05-10T07:17:31.835Z,472.83
2023-05-10T07:18:31.655Z,470.62
2023-05-10T07:19:31.626Z,477.11
2023-05-10T07:20:31.602Z,494.48
2023-05-10T07:21:31.705Z,498.89
2023-05-10T07:22:31.638Z,483.59
2023-05-10T07:23:31.641Z,488
2023-05-10T07:24:31.636Z,484.08
2023-05-10T07:25:31.629Z,484.94
2023-05-10T07:26:31.722Z,484.45
2023-05-10T07:27:31.661Z,483.59
2023-05-10T07:28:31.707Z,485.79
2023-05-10T07:29:31.633Z,488.86
2023-05-10T07:30:31.694Z,491.06
2023-05-10T07:31:31.669Z,494.97
2023-05-10T07:32:31.767Z,496.2
2023-05-10T07:33:31.692Z,498.4
2023-05-10T07:34:31.618Z,491.42
2023-05-10T07:35:31.649Z,498.89
2023-05-10T07:36:31.609Z,521.4
2023-05-10T07:37:31.617Z,523.11
2023-05-10T07:38:31.653Z,521.76
2023-05-10T07:39:31.646Z,530.94
2023-05-10T07:40:31.716Z,531.79
2023-05-10T07:41:31.617Z,533.14
2023-05-10T07:42:31.621Z,533.14
2023-05-10T07:43:31.581Z,532.65
2023-05-10T07:44:31.650Z,531.79
2023-05-10T07:45:31.665Z,536.08
2023-05-10T07:46:31.691Z,535.71
2023-05-10T07:47:31.658Z,537.91
2023-05-10T07:48:31.607Z,537.91
2023-05-10T07:49:31.650Z,541.33
2023-05-10T07:50:31.636Z,548.31
2023-05-10T07:51:31.605Z,556.99
2023-05-10T07:52:31.600Z,561.28
2023-05-10T07:53:31.599Z,564.33
2023-05-10T07:54:31.690Z,574.74
2023-05-10T07:55:31.600Z,577.3
2023-05-10T07:56:31.590Z,580.36
2023-05-10T07:57:31.583Z,580.36
2023-05-10T07:58:31.660Z,582.08
2023-05-10T07:59:31.616Z,584.28
2023-05-10T08:00:31.616Z,589.53
2023-05-10T08:01:31.611Z,592.47
2023-05-10T08:02:31.697Z,594.67
2023-05-10T08:03:31.736Z,596.02
2023-05-10T08:04:31.756Z,594.31
2023-05-10T08:05:32.039Z,593.45
2023-05-10T08:06:31.615Z,591.25
2023-05-10T08:07:31.609Z,582.08
2023-05-10T08:08:31.657Z,578.16
2023-05-10T08:09:31.679Z,579.14
2023-05-10T08:10:31.613Z,584.28
2023-05-10T08:11:33.184Z,584.28
2023-05-10T08:12:31.605Z,589.05
2023-05-10T08:13:31.584Z,593.45
2023-05-10T08:14:31.641Z,504.51
2023-05-10T08:15:31.622Z,596.39
2023-05-10T08:16:31.653Z,596.39
2023-05-10T08:17:31.626Z,596.87
2023-05-10T08:18:31.715Z,596.87
2023-05-10T08:19:31.624Z,595.53
2023-05-10T08:20:31.713Z,596.39
2023-05-10T08:21:31.587Z,600.3
2023-05-10T08:22:31.681Z,606.79
2023-05-10T08:23:31.621Z,547.45
2023-05-10T08:24:31.721Z,610.33
2023-05-10T08:25:31.617Z,615.96
2023-05-10T08:26:31.692Z,620.73
2023-05-10T08:27:31.617Z,622.94
2023-05-10T08:28:31.647Z,625.5
2023-05-10T08:29:38.628Z,629.79
2023-05-10T08:30:31.556Z,630.77
2023-05-10T08:31:31.740Z,627.7
2023-05-10T08:32:31.621Z,628.56
2023-05-10T08:33:31.659Z,625.01
2023-05-10T08:34:31.644Z,625.99
2023-05-10T08:35:31.612Z,384.25
2023-05-10T08:36:31.696Z,629.42
2023-05-10T08:37:31.616Z,629.42
2023-05-10T08:38:31.651Z,611.19
2023-05-10T08:39:31.746Z,624.65
2023-05-10T08:40:31.609Z,621.22
2023-05-10T08:41:31.932Z,623.3
2023-05-10T08:42:31.637Z,625.5
2023-05-10T08:43:31.616Z,628.56
2023-05-10T08:44:31.600Z,628.07
2023-05-10T08:45:31.577Z,634.19
2023-05-10T08:46:31.639Z,427.69
2023-05-10T08:47:31.657Z,650.21
2023-05-10T08:48:31.608Z,652.42
2023-05-10T08:49:31.585Z,653.28
2023-05-10T08:50:31.621Z,661.11
2023-05-10T08:51:31.612Z,537.91
2023-05-10T08:52:31.588Z,658.04
2023-05-10T08:53:31.610Z,668.45
2023-05-10T08:54:31.607Z,671.87
2023-05-10T08:55:31.615Z,634.19
2023-05-10T08:56:31.605Z,661.96
2023-05-10T08:57:31.601Z,278.07
2023-05-10T08:58:31.628Z,667.96
2023-05-10T08:59:31.628Z,486.28
2023-05-10T09:00:31.651Z,489.34
2023-05-10T09:01:31.772Z,435.03
2023-05-10T09:02:31.698Z,569.11
2023-05-10T09:03:31.636Z,714.81
2023-05-10T09:04:31.749Z,160.02
2023-05-10T09:05:31.606Z,708.82
2023-05-10T09:06:31.629Z,714.44
2023-05-10T09:07:31.690Z,483.23
2023-05-10T09:08:31.591Z,265.47
2023-05-10T09:09:31.693Z,159.53
2023-05-10T09:10:31.648Z,160.51
2023-05-10T09:11:31.606Z,312.69
2023-05-10T09:12:31.595Z,255.93
2023-05-10T09:13:31.599Z,392.94
2023-05-10T09:14:31.716Z,265.47
2023-05-10T09:15:31.615Z,371.78
2023-05-10T09:16:31.635Z,259.35
2023-05-10T09:17:31.679Z,143.99
2023-05-10T09:18:31.606Z,345.23
2023-05-10T09:19:31.677Z,215.92
2023-05-10T09:20:31.665Z,350.86
2023-05-10T09:21:31.637Z,164.29
2023-05-10T09:22:31.703Z,199.04
2023-05-10T09:23:31.644Z,236.35
2023-05-10T09:24:31.571Z,160.87
2023-05-10T09:25:31.593Z,148.76
2023-05-10T09:26:31.624Z,163.44
2023-05-10T09:27:31.612Z,356.12
2023-05-10T09:28:31.629Z,174.81
2023-05-10T09:29:31.574Z,292.38
2023-05-10T09:30:31.615Z,466.71
2023-05-10T09:31:31.746Z,426.83
2023-05-10T09:32:31.686Z,189.98
2023-05-10T09:33:31.626Z,263.27
2023-05-10T09:34:31.668Z,124.9
2023-05-10T09:35:31.643Z,218.98
2023-05-10T09:36:31.604Z,279.78
2023-05-10T09:37:31.701Z,391.72
2023-05-10T09:38:31.581Z,300.09
2023-05-10T09:39:31.599Z,388.66
2023-05-10T09:40:31.623Z,283.2
2023-05-10T09:41:31.604Z,317.1
2023-05-10T09:42:31.690Z,397.71
2023-05-10T09:43:31.623Z,301.93
2023-05-10T09:44:31.722Z,358.32
2023-05-10T09:45:31.733Z,327.86
2023-05-10T09:46:31.616Z,313.54
2023-05-10T09:47:31.638Z,575.22
2023-05-10T09:48:31.586Z,323.58
2023-05-10T09:49:31.654Z,404.2
2023-05-10T09:50:31.755Z,417.28
2023-05-10T09:51:31.646Z,381.69
2023-05-10T09:52:31.669Z,537.91
2023-05-10T09:53:31.617Z,462.43
2023-05-10T09:54:32.624Z,307.06
2023-05-10T09:55:31.642Z,391.72
2023-05-10T09:56:31.626Z,394.66
2023-05-10T09:57:33.393Z,298.01
2023-05-10T09:58:31.625Z,296.66
2023-05-10T09:59:31.663Z,180.44
2023-05-10T10:00:31.601Z,190.36
2023-05-10T10:01:31.717Z,272.32
2023-05-10T10:02:31.658Z,425.97
2023-05-10T10:03:31.666Z,235.49
2023-05-10T10:04:31.673Z,202.95
2023-05-10T10:05:31.642Z,103.61
2023-05-10T10:06:31.647Z,232.07
2023-05-10T10:07:31.655Z,261.92
2023-05-10T10:08:31.587Z,102.27
2023-05-10T10:09:31.646Z,129.68
2023-05-10T10:10:31.610Z,345.72
2023-05-10T10:11:31.706Z,138.73
2023-05-10T10:12:31.605Z,262.41
2023-05-10T10:13:31.644Z,109.73
2023-05-10T10:14:31.631Z,313.18
2023-05-10T10:15:31.599Z,145.7
2023-05-10T10:16:31.683Z,337.4
2023-05-10T10:17:31.651Z,255.44
2023-05-10T10:18:31.612Z,284.92
2023-05-10T10:19:31.622Z,243.69
2023-05-10T10:20:31.708Z,271.46
2023-05-10T10:21:31.623Z,191.7
2023-05-10T10:22:31.571Z,278.93
2023-05-10T10:23:31.657Z,113.65
2023-05-10T10:24:31.698Z,245.04
2023-05-10T10:25:31.581Z,219.83
2023-05-10T10:26:31.660Z,367.37
2023-05-10T10:27:31.585Z,267.18
2023-05-10T10:28:31.589Z,147.05
2023-05-10T10:29:31.558Z,318.81
2023-05-10T10:30:31.618Z,159.53
2023-05-10T10:31:31.786Z,206.01
2023-05-10T10:32:31.615Z,286.27
2023-05-10T10:33:31.684Z,156.59
2023-05-10T10:34:31.713Z,203.44
2023-05-10T10:35:31.601Z,116.22
2023-05-10T10:36:31.587Z,179.1
2023-05-10T10:37:31.568Z,115.36
2023-05-10T10:38:31.616Z,346.95
2023-05-10T10:39:31.608Z,109.73
2023-05-10T10:40:34.431Z,180.81
2023-05-10T10:41:31.682Z,234.15
2023-05-10T10:42:31.649Z,290.54
2023-05-10T10:43:31.664Z,160.87
2023-05-10T10:44:31.665Z,244.18
2023-05-10T10:45:31.600Z,219.83
2023-05-10T10:46:31.678Z,136.16
2023-05-10T10:47:31.631Z,353.55
2023-05-10T10:48:31.695Z,175.67
2023-05-10T10:49:31.600Z,236.84
2023-05-10T10:50:31.601Z,175.67
2023-05-10T10:51:31.624Z,90.65
2023-05-10T10:52:31.625Z,67.65
2023-05-10T10:53:31.611Z,67.65
2023-05-10T10:54:31.629Z,68.02
2023-05-10T10:55:31.655Z,279.29
2023-05-10T10:56:31.626Z,235.49
2023-05-10T10:57:31.600Z,284.06
2023-05-10T10:58:31.649Z,309.63
2023-05-10T10:59:31.617Z,187.78
2023-05-10T11:00:31.762Z,495.34
2023-05-10T11:01:31.820Z,225.46
2023-05-10T11:02:31.675Z,146.56
2023-05-10T11:03:31.597Z,299.72
2023-05-10T11:04:31.598Z,401.63
2023-05-10T11:05:31.677Z,406.03
2023-05-10T11:06:31.612Z,241.12
2023-05-10T11:07:31.626Z,272.81
2023-05-10T11:08:31.629Z,267.18
2023-05-10T11:09:31.601Z,144.85
2023-05-10T11:10:31.627Z,296.66
2023-05-10T11:11:31.600Z,199.9
2023-05-10T11:12:31.652Z,208.22
2023-05-10T11:13:31.579Z,437.23
2023-05-10T11:14:31.597Z,169.56
2023-05-10T11:15:31.622Z,265.83
2023-05-10T11:16:31.603Z,239.78
2023-05-10T11:17:31.659Z,385.6
2023-05-10T11:18:31.636Z,411.66
2023-05-10T11:19:32.697Z,346.57
2023-05-10T11:20:44.781Z,432.45
2023-05-10T11:21:48.725Z,496.2
2023-05-10T11:22:52.809Z,468.42
2023-05-10T11:23:56.771Z,412.52
2023-05-10T11:25:00.915Z,490.57
2023-05-10T11:26:04.724Z,211.64
2023-05-10T11:27:08.893Z,255.07
2023-05-10T11:28:12.750Z,186.07
2023-05-10T11:29:16.803Z,319.66
2023-05-10T11:30:20.967Z,388.66
2023-05-10T11:31:24.960Z,235.49
2023-05-10T11:32:28.755Z,490.2
2023-05-10T11:33:31.649Z,441.14
2023-05-10T11:34:31.580Z,329.69
2023-05-10T11:35:31.624Z,168.7
2023-05-10T11:36:31.622Z,462.79
2023-05-10T11:37:31.646Z,364.32
2023-05-10T11:38:31.594Z,238.56
2023-05-10T11:39:31.576Z,329.2
2023-05-10T11:40:31.637Z,314.4
2023-05-10T11:41:31.643Z,208.58
2023-05-10T11:42:31.599Z,411.66
2023-05-10T11:43:31.588Z,331.4
2023-05-10T11:44:31.595Z,300.58
2023-05-10T11:45:31.587Z,173.47
2023-05-10T11:46:31.657Z,428.18
2023-05-10T11:47:31.622Z,665.38
2023-05-10T11:48:31.608Z,498.89
2023-05-10T11:49:31.619Z,576.45
2023-05-10T11:50:31.584Z,167.85
2023-05-10T11:51:31.667Z,208.22
2023-05-10T11:52:31.641Z,523.6
2023-05-10T11:53:31.620Z,241.61
2023-05-10T11:54:31.583Z,238.56
2023-05-10T11:55:31.579Z,466.35
2023-05-10T11:56:31.595Z,425.49
2023-05-10T11:57:31.604Z,383.03
2023-05-10T11:58:31.634Z,329.2
2023-05-10T11:59:32.504Z,243.69
2023-05-10T12:00:44.663Z,187.29
2023-05-10T12:01:48.677Z,238.92
2023-05-10T12:02:52.748Z,386.46
2023-05-10T12:03:56.847Z,237.21
2023-05-10T12:05:00.780Z,397.71
2023-05-10T12:06:04.798Z,525.31
2023-05-10T12:07:08.645Z,435.52
2023-05-10T12:08:12.702Z,413.37
2023-05-10T12:09:17.656Z,532.28
2023-05-10T12:10:21.037Z,389.03
2023-05-10T12:11:24.681Z,445.91
2023-05-10T12:12:28.950Z,545.62
2023-05-10T12:13:31.585Z,509.28
2023-05-10T12:14:31.575Z,368.23
2023-05-10T12:15:31.589Z,646.3
2023-05-10T12:16:31.735Z,592.96
2023-05-10T12:17:31.584Z,541.82
2023-05-10T12:18:31.661Z,648.87
2023-05-10T12:19:31.584Z,635.53
2023-05-10T12:20:31.582Z,645.07
2023-05-10T12:21:31.611Z,129.19
2023-05-10T12:22:31.679Z,650.21
2023-05-10T12:23:31.673Z,641.53
2023-05-10T12:24:31.613Z,634.55
2023-05-10T12:25:31.647Z,576.94
2023-05-10T12:26:31.706Z,621.59
2023-05-10T12:27:31.841Z,615.96
2023-05-10T12:28:31.560Z,622.45
2023-05-10T12:29:31.595Z,622.45
2023-05-10T12:30:31.519Z,621.59
2023-05-10T12:31:31.586Z,628.93
2023-05-10T12:32:31.599Z,636.76
2023-05-10T12:33:31.586Z,638.47
2023-05-10T12:34:31.581Z,640.67
2023-05-10T12:35:31.640Z,642.38
2023-05-10T12:36:31.559Z,625.01
2023-05-10T12:37:31.678Z,644.59
2023-05-10T12:38:31.605Z,646.3
2023-05-10T12:39:31.600Z,641.16
2023-05-10T12:40:31.583Z,641.16
2023-05-10T12:41:31.667Z,638.47
2023-05-10T12:42:31.562Z,635.04
2023-05-10T12:43:31.566Z,584.77
2023-05-10T12:44:31.613Z,619.02
2023-05-10T12:45:31.684Z,618.16
2023-05-10T12:46:31.688Z,614.25
2023-05-10T12:47:31.646Z,611.19
2023-05-10T12:48:31.590Z,613.39
2023-05-10T12:49:31.634Z,611.19
2023-05-10T12:50:31.569Z,612.53
2023-05-10T12:51:31.574Z,612.9
2023-05-10T12:52:31.592Z,518.82
2023-05-10T12:53:31.625Z,616.45
2023-05-10T12:54:31.638Z,623.79
2023-05-10T12:55:31.548Z,620.73
2023-05-10T12:56:31.611Z,621.22
2023-05-10T12:57:31.602Z,621.22
2023-05-10T12:58:36.077Z,461.57
2023-05-10T12:59:31.599Z,620.24
2023-05-10T13:00:31.623Z,612.9
2023-05-10T13:01:31.625Z,610.7
2023-05-10T13:02:31.560Z,605.56
2023-05-10T13:03:31.639Z,601.16
2023-05-10T13:04:31.745Z,592.96